Terminal Aerodrome Forecast
Issued by NWS Upton, NY

Home | Current Version | Previous Version | Text Only | Print | Product List | Glossary On
Versions: 1 2 3 4 5 6 7 8 9 10 11 12 13 14 15 16 17 18 19 20 21 22 23 24 25 26 27 28 29 30
000
FTUS41 KOKX 300231 AAA
TAFEWR
TAF AMD
KEWR 300231Z 3003/3106 20006KT P6SM FEW050 SCT250
     FM300500 25005KT P6SM FEW050 SCT100
     FM301800 21011KT P6SM BKN050 BKN100
     FM310100 24007KT P6SM BKN050 BKN100=

USA.gov is the U.S. government's official web portal to all federal, state and local government web resources and services.